Tuesday, April 24, 2018, 4:44 AM EDT
Back to Local

KEEN, Keene, Dillant-hopkins Airport

Location: Keene, NH, United States Lat: 42.9
Local Time: 4:44 AM EDT ( 8:44 GMT) Lon: -72.267
Time Zone: US/Eastern Elev: 488 ft

Show me the last for .
Show Coded

Time T Td Feel RH Dir Speed Gust Alt SLP Vis Weather Sky Remarks
2018-04-24 03:56 32 27 - 81 - Calm - 30.39 30.46 10 CLR None
2018-04-24 02:56 33 27 - 77 - Calm - 30.39 30.46 10 CLR None
2018-04-24 01:56 35 26 - 69 - Calm - 30.39 30.46 10 CLR 6-hr Min Temp (2am): 35.1°F
6-hr Max Temp (2am): 55.0°F
2018-04-24 00:56 41 24 - 50 - Calm - 30.40 30.46 10 CLR 24-hr Min Temp (1am): 21.9°F
24-hr Max Temp (1am): 71.1°F
2018-04-23 23:56 42 25 - 50 - Calm - 30.40 30.47 10 CLR None
2018-04-23 22:56 45 24 - 43 - Calm - 30.39 30.45 10 CLR None
2018-04-23 21:56 45 24 43 43 190° 5 - 30.39 30.46 10 CLR None
2018-04-23 20:56 49 25 48 38 170° 3 - 30.37 30.44 10 CLR None
2018-04-23 19:56 56 21 - 25 - Calm - 30.35 30.42 10 CLR 6-hr Min Temp (8pm): 55.9°F
6-hr Max Temp (8pm): 71.1°F
2018-04-23 18:56 66 16 - 14 180° 9 - 30.34 30.41 10 CLR None
2018-04-23 17:56 69 13 - 11 240° 8 - 30.35 30.42 10 CLR None
2018-04-23 16:56 70 13 - 10 - Calm - 30.36 30.43 10 CLR None
2018-04-23 14:56 69 12 - 10 Variable 3 - 30.40 30.46 10 CLR None
2018-04-23 13:56 67 15 - 13 Variable 3 - 30.43 30.49 9 CLR 6-hr Min Temp (2pm): 37.0°F
6-hr Max Temp (2pm): 68.0°F
2018-04-23 12:56 64 14 - 14 190° 5 - 30.45 30.51 10 CLR None
2018-04-23 11:56 61 10 - 13 - Calm - 30.47 30.54 10 CLR None
2018-04-23 10:56 61 19 - 19 - Calm - 30.49 30.56 10 CLR None
2018-04-23 09:56 54 25 - 32 - Calm - 30.51 30.58 10 CLR None
2018-04-23 08:56 46 27 - 47 - Calm - 30.52 30.59 10 CLR None
2018-04-23 07:56 37 27 - 66 - Calm - 30.52 30.58 10 CLR 6-hr Min Temp (8am): 21.9°F
6-hr Max Temp (8am): 37.0°F
2018-04-23 06:56 27 25 22 92 200° 5 - 30.51 30.57 10 CLR None
2018-04-23 05:56 23 21 - 91 - Calm - 30.49 30.55 10 CLR None
2018-04-23 04:56 23 21 - 91 - Calm - 30.47 30.53 10 CLR None

Support USWX by starting your Amazon purchase here.